Orrville, Canada
Current Conditions -  °F | °C
As of 12:14 PM on Tuesday 21 Oct 2014 (Local Time) from CYQA Reporting Station
Overcast Overcast  
Wind Chill: 36°   Ceiling: 1000
Heat Index: 41°   Visibility: 9mi
Dew Point: 41°   Wind: 7mph
Humidity: 100%   Direction: 20°NNE
Pressure: 29.98"   Gusts: NA
Location:  45.38°N, 79.78°W
Report Text: CYQA 211614Z AUTO 02006KT 330V070 9SM OVC010 05/05 A2998 RMK SLP158
Loading
Personal Weather Stations






























Interactive Weather Map
Tropical Storm Tracking
New forecast layout! Learn more

10-Day Weather Forecast

Advertisements
Track Severe Weather on mobile